Time;durP1;ratioP1;P1;durP2;ratioP2;P2;SDS_P1;SDS_P2;PMS_P1;PMS_P2;Temp;Humidity;BMP_temperature;BMP_pressure;BME280_temperature;BME280_humidity;BME280_pressure;Samples;Min_cycle;Max_cycle;Signal;HPM_P1;HPM_P2
2022/03/06 00:01:09;;;;;;;8.00;7.60;;;;;;;-0.40;100.00;101435.22;5032727;28;20067;-64
2022/03/06 00:03:34;;;;;;;8.25;7.75;;;;;;;-0.47;100.00;101439.91;5030333;28;20028;-64
2022/03/06 00:06:01;;;;;;;7.70;7.30;;;;;;;-0.45;100.00;101437.22;5032347;28;20025;-65
2022/03/06 00:08:27;;;;;;;7.50;7.10;;;;;;;-0.44;100.00;101437.16;5033549;28;20060;-64
2022/03/06 00:10:53;;;;;;;8.27;7.78;;;;;;;-0.45;100.00;101432.84;5030786;28;20029;-66
2022/03/06 00:13:19;;;;;;;8.00;7.55;;;;;;;-0.44;100.00;101428.47;5030662;28;20021;-64
2022/03/06 00:15:45;;;;;;;7.35;6.95;;;;;;;-0.49;100.00;101433.94;5028947;28;20025;-64
2022/03/06 00:18:10;;;;;;;7.60;7.20;;;;;;;-0.44;100.00;101424.13;5035628;28;20108;-65
2022/03/06 00:20:35;;;;;;;8.32;7.82;;;;;;;-0.46;100.00;101431.16;5033561;28;20185;-65
2022/03/06 00:23:03;;;;;;;7.60;7.20;;;;;;;-0.44;100.00;101425.88;5046449;28;20040;-65
2022/03/06 00:25:28;;;;;;;7.82;7.43;;;;;;;-0.38;100.00;101431.59;5032937;28;20025;-65
2022/03/06 00:27:54;;;;;;;7.57;7.18;;;;;;;-0.44;100.00;101423.25;5035217;28;20021;-65
2022/03/06 00:30:19;;;;;;;7.63;7.22;;;;;;;-0.44;100.00;101423.25;5033357;28;20029;-65
2022/03/06 00:32:45;;;;;;;8.15;7.65;;;;;;;-0.37;100.00;101425.47;5030500;28;20036;-65
2022/03/06 00:35:11;;;;;;;8.07;7.57;;;;;;;-0.43;100.00;101422.34;5044101;28;20037;-65
2022/03/06 00:37:36;;;;;;;7.70;7.30;;;;;;;-0.44;100.00;101420.66;5040953;28;20115;-65
2022/03/06 00:40:04;;;;;;;7.43;7.03;;;;;;;-0.42;100.00;101430.09;5017601;28;20061;-65
2022/03/06 00:42:29;;;;;;;7.72;7.32;;;;;;;-0.45;100.00;101422.41;5018724;28;20037;-64
2022/03/06 00:44:55;;;;;;;7.80;7.38;;;;;;;-0.36;100.00;101419.34;5027569;28;20025;-64
2022/03/06 00:47:20;;;;;;;7.60;7.20;;;;;;;-0.53;100.00;101421.16;5028021;28;20646;-65
2022/03/06 00:49:46;;;;;;;7.75;7.35;;;;;;;-0.62;100.00;101425.09;5034224;28;20045;-65
2022/03/06 00:52:12;;;;;;;7.80;7.40;;;;;;;-0.58;100.00;101424.84;5032472;28;20030;-64
2022/03/06 00:54:38;;;;;;;8.15;7.65;;;;;;;-0.48;100.00;101425.19;5032640;28;20025;-64
2022/03/06 00:57:03;;;;;;;7.97;7.50;;;;;;;-0.46;100.00;101417.28;5031491;28;20082;-65
2022/03/06 00:59:34;;;;;;;7.90;7.50;;;;;;;-0.42;100.00;101421.44;5011063;28;20033;-65
2022/03/06 01:02:01;;;;;;;7.57;7.18;;;;;;;-0.49;100.00;101415.69;5025464;28;20026;-65
2022/03/06 01:04:26;;;;;;;7.38;6.97;;;;;;;-0.38;100.00;101413.34;5036242;28;20054;-65
2022/03/06 01:06:52;;;;;;;7.72;7.32;;;;;;;-0.45;100.00;101414.59;5024798;28;20025;-65
2022/03/06 01:09:17;;;;;;;7.78;7.35;;;;;;;-0.54;100.00;101414.25;5016548;28;20025;-65
2022/03/06 01:11:43;;;;;;;7.72;7.32;;;;;;;-0.47;100.00;101416.44;5044464;28;23105;-65
2022/03/06 01:14:08;;;;;;;8.13;7.63;;;;;;;-0.69;100.00;101408.94;5033276;28;20022;-65
2022/03/06 01:16:34;;;;;;;7.55;7.15;;;;;;;-0.70;100.00;101390.78;5032777;28;20036;-63
2022/03/06 01:19:00;;;;;;;7.80;7.40;;;;;;;-0.55;100.00;101403.00;5033686;28;20112;-65
2022/03/06 01:21:25;;;;;;;7.78;7.38;;;;;;;-0.43;100.00;101410.16;5035634;28;20029;-65
2022/03/06 01:23:51;;;;;;;7.75;7.32;;;;;;;-0.53;100.00;101387.28;5035170;28;20037;-64
2022/03/06 01:26:20;;;;;;;7.65;7.25;;;;;;;-0.42;100.00;101403.19;5034816;28;20029;-64
2022/03/06 01:28:45;;;;;;;7.70;7.30;;;;;;;-0.44;100.00;101408.50;5022825;28;20033;-64
2022/03/06 01:31:11;;;;;;;7.68;7.28;;;;;;;-0.49;100.00;101407.03;5027262;28;20463;-65
2022/03/06 01:33:37;;;;;;;7.88;7.47;;;;;;;-0.56;100.00;101402.16;5034793;28;20630;-63
2022/03/06 01:36:03;;;;;;;8.18;7.68;;;;;;;-0.50;100.00;101400.16;5031607;28;20403;-66
2022/03/06 01:38:29;;;;;;;8.68;8.18;;;;;;;-0.46;100.00;101401.66;5030238;28;20391;-64
2022/03/06 01:40:55;;;;;;;8.00;7.50;;;;;;;-0.42;100.00;101404.03;5032750;28;20021;-65
2022/03/06 01:43:20;;;;;;;7.75;7.35;;;;;;;-0.48;100.00;101401.75;5031093;28;20630;-65
2022/03/06 01:45:46;;;;;;;7.60;7.20;;;;;;;-0.54;100.00;101396.84;5035662;28;20041;-64
2022/03/06 01:48:11;;;;;;;8.18;7.68;;;;;;;-0.56;100.00;101385.69;5017791;28;20021;-64
2022/03/06 01:50:38;;;;;;;8.05;7.57;;;;;;;-0.47;100.00;101400.81;5032570;28;20104;-64
2022/03/06 01:53:06;;;;;;;8.15;7.65;;;;;;;-0.56;100.00;101403.91;5029262;28;20377;-63
2022/03/06 01:55:32;;;;;;;7.93;7.47;;;;;;;-0.54;100.00;101396.00;5048317;28;20037;-64
2022/03/06 01:58:01;;;;;;;7.95;7.45;;;;;;;-0.63;100.00;101405.16;5020643;28;20467;-64
2022/03/06 02:00:34;;;;;;;8.27;7.78;;;;;;;-0.53;100.00;101402.91;5044174;28;20029;-64
2022/03/06 02:03:00;;;;;;;8.57;8.07;;;;;;;-0.53;100.00;101403.75;5029484;28;20021;-64
2022/03/06 02:05:26;;;;;;;8.25;7.75;;;;;;;-0.63;100.00;101403.41;5029188;28;20266;-64
2022/03/06 02:07:52;;;;;;;8.05;7.60;;;;;;;-0.65;100.00;101412.22;5032608;28;20036;-64
2022/03/06 02:10:17;;;;;;;7.80;7.40;;;;;;;-0.64;100.00;101399.13;5029593;28;20036;-64
2022/03/06 02:12:44;;;;;;;8.75;8.25;;;;;;;-0.66;100.00;101393.16;5032872;28;20033;-65
2022/03/06 02:15:12;;;;;;;9.35;8.75;;;;;;;-0.68;100.00;101383.72;5030626;28;20108;-64
2022/03/06 02:17:38;;;;;;;7.68;7.28;;;;;;;-0.55;100.00;101397.78;5023764;28;20044;-66
2022/03/06 02:20:08;;;;;;;7.43;7.03;;;;;;;-0.58;100.00;101404.00;5032290;28;20029;-63
2022/03/06 02:22:40;;;;;;;8.55;8.05;;;;;;;-0.58;100.00;101408.38;5036551;28;20116;-63
2022/03/06 02:25:14;;;;;;;8.20;7.70;;;;;;;-0.55;100.00;101403.00;5029282;28;20388;-65
2022/03/06 02:27:40;;;;;;;8.10;7.60;;;;;;;-0.60;100.00;101400.63;5030994;28;20029;-63
2022/03/06 02:30:08;;;;;;;8.13;7.63;;;;;;;-0.61;100.00;101398.94;5033449;28;20037;-64
2022/03/06 02:32:35;;;;;;;7.95;7.47;;;;;;;-0.57;100.00;101397.03;5029181;28;20083;-64
2022/03/06 02:35:02;;;;;;;8.10;7.60;;;;;;;-0.51;100.00;101396.72;5030608;28;20041;-65
2022/03/06 02:37:27;;;;;;;7.70;7.30;;;;;;;-0.49;100.00;101394.00;5035004;28;20025;-63
2022/03/06 02:39:53;;;;;;;7.50;7.10;;;;;;;-0.46;100.00;101388.63;5015799;28;20100;-64
2022/03/06 02:42:27;;;;;;;7.40;7.00;;;;;;;-0.47;100.00;101382.56;5022811;28;20457;-64
2022/03/06 02:44:52;;;;;;;8.20;7.70;;;;;;;-0.46;100.00;101388.63;5032985;28;20033;-64
2022/03/06 02:47:18;;;;;;;7.53;7.13;;;;;;;-0.52;100.00;101400.22;5034520;28;20038;-64
2022/03/06 02:49:44;;;;;;;8.15;7.65;;;;;;;-0.50;100.00;101401.00;5019416;28;20035;-65
2022/03/06 02:52:09;;;;;;;7.70;7.30;;;;;;;-0.47;100.00;101398.22;5035116;28;20536;-64
2022/03/06 02:54:36;;;;;;;7.72;7.32;;;;;;;-0.56;100.00;101396.09;5031502;28;20125;-64
2022/03/06 02:57:03;;;;;;;7.55;7.15;;;;;;;-0.51;100.00;101401.91;5032682;28;20029;-64
2022/03/06 02:59:29;;;;;;;7.85;7.45;;;;;;;-0.66;100.00;101398.38;5030987;28;20079;-65
2022/03/06 03:01:54;;;;;;;7.78;7.38;;;;;;;-0.71;100.00;101407.34;5030563;28;20033;-64
2022/03/06 03:04:21;;;;;;;7.63;7.22;;;;;;;-0.66;100.00;101397.50;5027074;28;20028;-64
2022/03/06 03:06:50;;;;;;;7.70;7.30;;;;;;;-0.70;100.00;101401.19;5038075;28;20031;-64
2022/03/06 03:09:19;;;;;;;7.78;7.38;;;;;;;-0.69;100.00;101403.72;5032960;28;20026;-64
2022/03/06 03:11:46;;;;;;;8.30;7.80;;;;;;;-0.71;100.00;101409.94;5032069;28;20036;-64
2022/03/06 03:14:13;;;;;;;7.00;6.70;;;;;;;-0.73;100.00;101411.81;5029744;28;20112;-65
2022/03/06 03:16:39;;;;;;;7.80;7.40;;;;;;;-0.74;100.00;101404.88;5030316;28;20033;-64
2022/03/06 03:19:04;;;;;;;8.18;7.72;;;;;;;-0.75;100.00;101411.00;5028853;28;20029;-64
2022/03/06 03:21:30;;;;;;;8.02;7.63;;;;;;;-0.82;100.00;101407.03;5028969;28;20040;-65
2022/03/06 03:23:55;;;;;;;8.45;7.95;;;;;;;-0.70;100.00;101404.66;5042572;28;20091;-64
2022/03/06 03:26:20;;;;;;;8.43;7.93;;;;;;;-0.75;100.00;101404.03;5031829;28;20034;-64
2022/03/06 03:28:46;;;;;;;8.00;7.60;;;;;;;-0.77;100.00;101399.84;5024525;28;20085;-64
2022/03/06 03:31:11;;;;;;;7.90;7.50;;;;;;;-0.80;100.00;101402.63;5024443;28;20041;-64
2022/03/06 03:33:37;;;;;;;7.80;7.40;;;;;;;-0.77;100.00;101405.06;5021534;28;20099;-64
2022/03/06 03:36:03;;;;;;;7.90;7.47;;;;;;;-0.76;100.00;101411.94;5017636;28;20082;-64
2022/03/06 03:38:28;;;;;;;7.80;7.40;;;;;;;-0.85;100.00;101401.09;5029495;28;20489;-64
2022/03/06 03:40:53;;;;;;;7.57;7.18;;;;;;;-0.75;100.00;101408.41;5030211;28;20049;-65
2022/03/06 03:43:19;;;;;;;8.15;7.70;;;;;;;-0.84;100.00;101410.56;5030537;28;20065;-63
2022/03/06 03:45:45;;;;;;;8.25;7.75;;;;;;;-0.74;100.00;101416.13;5013107;28;20022;-65
2022/03/06 03:48:10;;;;;;;8.10;7.68;;;;;;;-0.79;100.00;101412.13;5043235;28;20115;-64
2022/03/06 03:50:36;;;;;;;8.48;7.97;;;;;;;-0.75;100.00;101413.63;5038596;28;20116;-65
2022/03/06 03:53:01;;;;;;;8.40;7.90;;;;;;;-0.82;100.00;101420.06;5033863;28;20044;-65
2022/03/06 03:55:27;;;;;;;7.82;7.43;;;;;;;-0.94;100.00;101417.19;5035565;28;20026;-65
2022/03/06 03:57:52;;;;;;;7.70;7.30;;;;;;;-0.99;100.00;101400.97;5028525;28;20049;-65
2022/03/06 04:00:18;;;;;;;8.38;7.88;;;;;;;-0.80;100.00;101431.28;5031003;28;20428;-65
2022/03/06 04:02:43;;;;;;;7.43;7.03;;;;;;;-0.92;100.00;101420.56;5037386;28;20123;-66
2022/03/06 04:05:09;;;;;;;8.02;7.63;;;;;;;-0.98;100.00;101410.44;5035801;28;20021;-64
2022/03/06 04:07:34;;;;;;;8.98;8.38;;;;;;;-0.86;100.00;101428.06;5034545;28;20034;-63
2022/03/06 04:10:00;;;;;;;8.35;7.85;;;;;;;-0.81;100.00;101422.59;5037259;28;20119;-64
2022/03/06 04:12:26;;;;;;;8.55;8.05;;;;;;;-0.87;100.00;101415.97;5043191;28;20064;-65
2022/03/06 04:14:51;;;;;;;7.97;7.50;;;;;;;-0.65;100.00;101433.06;5027641;28;20037;-64
2022/03/06 04:17:17;;;;;;;8.20;7.70;;;;;;;-0.74;100.00;101431.78;5045549;28;20061;-64
2022/03/06 04:19:42;;;;;;;8.43;7.93;;;;;;;-0.79;100.00;101432.94;5025977;28;20095;-64
2022/03/06 04:22:07;;;;;;;7.55;7.15;;;;;;;-0.78;100.00;101430.25;5033981;28;20649;-64
2022/03/06 04:24:33;;;;;;;8.35;7.85;;;;;;;-0.75;100.00;101429.25;5032830;28;20388;-64
2022/03/06 04:26:58;;;;;;;8.90;8.35;;;;;;;-0.69;100.00;101427.16;5021990;28;20408;-63
2022/03/06 04:29:24;;;;;;;7.43;7.03;;;;;;;-0.78;100.00;101432.03;5037800;28;20033;-65
2022/03/06 04:31:49;;;;;;;9.15;8.55;;;;;;;-0.78;100.00;101427.66;5045162;28;20555;-65
2022/03/06 04:34:15;;;;;;;7.90;7.50;;;;;;;-0.74;100.00;101428.31;5033640;28;20464;-65
2022/03/06 04:36:41;;;;;;;8.85;8.32;;;;;;;-0.78;100.00;101424.22;5036991;28;20033;-64
2022/03/06 04:39:06;;;;;;;7.95;7.55;;;;;;;-0.77;100.00;101433.72;5034576;28;20558;-64
2022/03/06 04:41:32;;;;;;;7.72;7.32;;;;;;;-0.72;100.00;101431.72;5033815;28;20431;-66
2022/03/06 04:43:58;;;;;;;7.68;7.28;;;;;;;-0.72;100.00;101439.53;5032940;28;20050;-65
2022/03/06 04:46:24;;;;;;;7.22;6.85;;;;;;;-0.67;100.00;101434.91;5031106;28;20061;-65
2022/03/06 04:48:49;;;;;;;7.88;7.47;;;;;;;-0.41;100.00;101438.75;5031214;28;20534;-64
2022/03/06 04:51:15;;;;;;;7.60;7.20;;;;;;;-0.35;100.00;101436.66;5023419;28;20515;-65
2022/03/06 04:53:42;;;;;;;8.48;7.97;;;;;;;-0.42;100.00;101437.91;5035225;28;20033;-65
2022/03/06 04:56:08;;;;;;;8.20;7.70;;;;;;;-0.55;100.00;101439.47;5043837;28;20388;-64
2022/03/06 04:58:33;;;;;;;8.07;7.60;;;;;;;-0.54;100.00;101435.09;5026829;28;20100;-64
2022/03/06 05:00:59;;;;;;;8.13;7.68;;;;;;;-0.54;100.00;101445.53;5043217;28;20027;-64
2022/03/06 05:03:25;;;;;;;8.93;8.38;;;;;;;-0.49;100.00;101449.59;5031539;28;20442;-64
2022/03/06 05:05:50;;;;;;;8.27;7.78;;;;;;;-0.52;100.00;101446.28;5026930;28;20025;-65
2022/03/06 05:08:16;;;;;;;8.63;8.13;;;;;;;-0.61;100.00;101447.63;5042661;28;20486;-64
2022/03/06 05:10:41;;;;;;;7.50;7.10;;;;;;;-0.54;100.00;101455.94;5027698;28;20116;-65
2022/03/06 05:13:07;;;;;;;7.90;7.47;;;;;;;-0.59;100.00;101451.84;5029566;28;20036;-65
2022/03/06 05:15:33;;;;;;;7.53;7.13;;;;;;;-0.54;100.00;101448.97;5036957;28;20104;-65
2022/03/06 05:17:58;;;;;;;7.85;7.45;;;;;;;-0.54;100.00;101454.19;5025480;28;20029;-65
2022/03/06 05:20:24;;;;;;;8.52;8.02;;;;;;;-0.52;100.00;101460.16;5034340;28;20113;-65
2022/03/06 05:22:49;;;;;;;7.93;7.50;;;;;;;-0.57;100.00;101465.63;5033248;28;20025;-65
2022/03/06 05:25:15;;;;;;;8.73;8.23;;;;;;;-0.44;100.00;101471.03;5031129;28;20032;-65
2022/03/06 05:27:41;;;;;;;7.97;7.55;;;;;;;-0.38;100.00;101472.47;5032893;28;20030;-65
2022/03/06 05:30:08;;;;;;;7.97;7.55;;;;;;;-0.45;100.00;101469.34;5032076;28;20033;-64
2022/03/06 05:32:34;;;;;;;7.70;7.30;;;;;;;-0.38;100.00;101469.84;5034582;28;20190;-65
2022/03/06 05:34:59;;;;;;;8.32;7.82;;;;;;;-0.26;100.00;101477.03;5030434;28;20132;-65
2022/03/06 05:37:25;;;;;;;8.30;7.80;;;;;;;-0.21;100.00;101480.25;5040515;28;20102;-65
2022/03/06 05:39:50;;;;;;;7.55;7.15;;;;;;;-0.26;100.00;101476.19;5036906;28;20026;-65
2022/03/06 05:42:17;;;;;;;7.63;7.22;;;;;;;-0.33;100.00;101473.91;5031684;28;20075;-64
2022/03/06 05:44:43;;;;;;;7.70;7.30;;;;;;;-0.38;100.00;101475.91;5027420;28;20172;-65
2022/03/06 05:47:08;;;;;;;7.68;7.28;;;;;;;-0.34;100.00;101471.38;5017162;28;20494;-65
2022/03/06 05:49:34;;;;;;;7.32;6.93;;;;;;;-0.13;100.00;101477.22;5031982;28;20030;-64
2022/03/06 05:52:02;;;;;;;8.38;7.88;;;;;;;-0.10;100.00;101475.28;5032562;28;20671;-65
2022/03/06 05:54:28;;;;;;;7.57;7.18;;;;;;;-0.18;100.00;101479.22;5023799;28;20057;-65
2022/03/06 05:56:53;;;;;;;7.65;7.25;;;;;;;-0.21;100.00;101479.41;5029944;28;20060;-65
2022/03/06 05:59:19;;;;;;;7.85;7.45;;;;;;;-0.29;100.00;101453.75;5030657;28;20029;-65
2022/03/06 06:01:44;;;;;;;7.78;7.32;;;;;;;-0.12;100.00;101473.69;5032161;28;20025;-65
2022/03/06 06:04:12;;;;;;;7.88;7.47;;;;;;;0.01;100.00;101482.53;5036791;28;20508;-65
2022/03/06 06:06:38;;;;;;;8.13;7.65;;;;;;;0.10;100.00;101487.25;5038584;28;20036;-65
2022/03/06 06:09:04;;;;;;;8.30;7.80;;;;;;;0.23;100.00;101483.03;5039475;28;20116;-64
2022/03/06 06:11:30;;;;;;;8.02;7.60;;;;;;;0.20;100.00;101485.81;5037405;28;20120;-65
2022/03/06 06:13:55;;;;;;;8.35;7.85;;;;;;;0.28;100.00;101480.16;5040038;28;20069;-66
2022/03/06 06:16:21;;;;;;;7.47;7.07;;;;;;;0.10;100.00;101476.81;5029851;28;20029;-64
2022/03/06 06:18:47;;;;;;;8.20;7.70;;;;;;;0.17;100.00;101487.75;5030162;28;20063;-65
2022/03/06 06:21:13;;;;;;;8.00;7.60;;;;;;;0.42;100.00;101492.44;5031625;28;20033;-65
2022/03/06 06:23:39;;;;;;;7.72;7.32;;;;;;;0.44;100.00;101486.22;5031370;28;20024;-66
2022/03/06 06:26:05;;;;;;;7.78;7.38;;;;;;;0.46;100.00;101497.41;5031212;28;20436;-65
2022/03/06 06:28:31;;;;;;;8.43;7.93;;;;;;;0.39;100.00;101497.84;5033947;28;20029;-65
2022/03/06 06:30:56;;;;;;;7.88;7.47;;;;;;;0.48;100.00;101492.09;5026245;28;20033;-64
2022/03/06 06:33:22;;;;;;;8.18;7.70;;;;;;;0.56;100.00;101502.97;5033251;28;20412;-66
2022/03/06 06:35:47;;;;;;;7.85;7.45;;;;;;;0.47;100.00;101493.03;5035998;28;20025;-65
2022/03/06 06:38:12;;;;;;;8.32;7.82;;;;;;;0.56;100.00;101495.13;5020269;28;20051;-65
2022/03/06 06:40:38;;;;;;;7.47;7.07;;;;;;;0.38;100.00;101504.84;5017280;28;20056;-65
2022/03/06 06:43:03;;;;;;;8.10;7.65;;;;;;;0.57;100.00;101501.19;5056057;28;20495;-64
2022/03/06 06:45:29;;;;;;;7.82;7.43;;;;;;;0.83;100.00;101514.47;5030473;28;20037;-63
2022/03/06 06:47:54;;;;;;;8.48;7.97;;;;;;;0.47;100.00;101511.31;5036486;28;20025;-65
2022/03/06 06:50:20;;;;;;;7.70;7.30;;;;;;;0.72;100.00;101515.97;5037430;28;20526;-66
2022/03/06 06:52:45;;;;;;;7.53;7.13;;;;;;;0.62;100.00;101505.22;5022109;28;20033;-64
2022/03/06 06:55:11;;;;;;;8.02;7.63;;;;;;;1.01;100.00;101512.53;5022024;28;20120;-65
2022/03/06 06:57:37;;;;;;;8.02;7.55;;;;;;;1.28;100.00;101510.09;5031669;28;20124;-66
2022/03/06 07:00:03;;;;;;;8.18;7.68;;;;;;;1.08;100.00;101518.25;5030733;28;20502;-65
2022/03/06 07:02:29;;;;;;;7.68;7.28;;;;;;;1.23;100.00;101516.50;5031542;28;20021;-65
2022/03/06 07:04:55;;;;;;;7.53;7.13;;;;;;;1.31;100.00;101524.75;5031780;28;20329;-66
2022/03/06 07:07:20;;;;;;;8.07;7.60;;;;;;;1.16;100.00;101512.56;5035395;28;20033;-66
2022/03/06 07:09:45;;;;;;;7.50;7.10;;;;;;;1.38;100.00;101516.44;5042592;28;20028;-64
2022/03/06 07:12:11;;;;;;;8.02;7.63;;;;;;;1.72;99.98;101521.44;5030322;28;20041;-64
2022/03/06 07:14:37;;;;;;;7.65;7.25;;;;;;;2.13;99.81;101524.09;5035820;28;20017;-66
2022/03/06 07:17:03;;;;;;;8.23;7.72;;;;;;;2.08;97.75;101524.41;5027884;28;20044;-66
2022/03/06 07:19:28;;;;;;;8.60;8.10;;;;;;;2.09;98.18;101515.59;5035238;28;20025;-66
2022/03/06 07:21:54;;;;;;;8.98;8.40;;;;;;;2.42;99.32;101520.50;5025021;28;20026;-67
2022/03/06 07:24:19;;;;;;;7.88;7.47;;;;;;;2.47;95.56;101507.09;5019542;28;20026;-66
2022/03/06 07:26:45;;;;;;;8.23;7.72;;;;;;;2.98;93.32;101513.34;5038143;28;20476;-66
2022/03/06 07:29:10;;;;;;;8.35;7.85;;;;;;;2.84;91.71;101505.56;5034299;28;20025;-66
2022/03/06 07:31:36;;;;;;;7.93;7.50;;;;;;;2.69;91.98;101517.88;5028660;28;20168;-67
2022/03/06 07:34:01;;;;;;;7.68;7.28;;;;;;;2.74;91.23;101512.34;5022998;28;20056;-66
2022/03/06 07:36:27;;;;;;;7.70;7.30;;;;;;;2.75;90.54;101501.75;5024895;28;20023;-64
2022/03/06 07:38:52;;;;;;;9.23;8.63;;;;;;;3.47;89.09;101506.59;5036429;28;20223;-65
2022/03/06 07:41:18;;;;;;;9.13;8.52;;;;;;;3.18;87.91;101512.03;5026975;28;20062;-64
2022/03/06 07:43:44;;;;;;;9.32;8.73;;;;;;;3.19;87.49;101510.25;5019514;28;20029;-66
2022/03/06 07:46:10;;;;;;;9.15;8.57;;;;;;;2.75;89.52;101506.16;5029584;28;20018;-64
2022/03/06 07:48:35;;;;;;;8.18;7.70;;;;;;;3.49;87.78;101515.19;5036546;28;20030;-66
2022/03/06 07:51:01;;;;;;;9.52;8.93;;;;;;;3.65;85.66;101521.06;5041947;28;20439;-65
2022/03/06 07:53:26;;;;;;;8.55;8.05;;;;;;;3.58;85.44;101512.78;5026592;28;20041;-66
2022/03/06 07:55:52;;;;;;;7.10;6.80;;;;;;;3.57;85.77;101515.50;5038729;28;20033;-66
2022/03/06 07:58:18;;;;;;;8.82;8.32;;;;;;;3.62;84.74;101518.66;5023043;28;20025;-64
2022/03/06 08:00:43;;;;;;;8.10;7.68;;;;;;;2.84;87.78;101516.03;5035206;28;20036;-66
2022/03/06 08:03:09;;;;;;;8.57;8.07;;;;;;;2.92;86.36;101513.75;5033874;28;20030;-65
2022/03/06 08:05:34;;;;;;;8.32;7.82;;;;;;;1.96;89.40;101512.06;5030361;28;20025;-65
2022/03/06 08:08:00;;;;;;;7.90;7.50;;;;;;;3.10;86.56;101511.69;5016345;28;20053;-65
2022/03/06 08:10:26;;;;;;;7.90;7.50;;;;;;;3.61;83.51;101509.13;5024779;28;20044;-65
2022/03/06 08:12:51;;;;;;;8.68;8.18;;;;;;;3.33;83.51;101505.75;5023859;28;20036;-66
2022/03/06 08:15:17;;;;;;;8.60;8.10;;;;;;;3.48;82.33;101508.28;5028121;28;20648;-65
2022/03/06 08:17:42;;;;;;;8.43;7.93;;;;;;;3.72;81.97;101510.97;5027356;28;20021;-64
2022/03/06 08:20:09;;;;;;;7.97;7.57;;;;;;;3.11;80.61;101497.66;5027510;28;20121;-64
2022/03/06 08:22:35;;;;;;;8.25;7.78;;;;;;;3.52;81.93;101505.31;5027781;28;20554;-64
2022/03/06 08:25:01;;;;;;;8.52;8.02;;;;;;;2.36;85.27;101507.81;5020948;28;20034;-64
2022/03/06 08:27:26;;;;;;;7.70;7.30;;;;;;;3.60;82.00;101504.81;5024239;28;20030;-64
2022/03/06 08:29:52;;;;;;;7.80;7.40;;;;;;;3.97;80.93;101504.88;5014309;28;20026;-64
2022/03/06 08:32:17;;;;;;;8.15;7.72;;;;;;;3.92;79.60;101505.19;5020230;28;20484;-64
2022/03/06 08:34:43;;;;;;;7.80;7.40;;;;;;;4.24;78.58;101509.94;5019690;28;20084;-64
2022/03/06 08:37:09;;;;;;;8.07;7.68;;;;;;;3.96;77.38;101505.81;5021394;28;20048;-63
2022/03/06 08:39:35;;;;;;;8.05;7.65;;;;;;;4.47;77.10;101511.75;5034551;28;20028;-64
2022/03/06 08:42:00;;;;;;;8.63;8.13;;;;;;;4.57;75.55;101502.25;5033701;28;20492;-64
2022/03/06 08:44:27;;;;;;;8.00;7.60;;;;;;;4.32;75.42;101503.19;5017044;28;20036;-64
2022/03/06 08:46:52;;;;;;;8.60;8.10;;;;;;;4.72;74.98;101510.81;5018563;28;20030;-63
2022/03/06 08:49:18;;;;;;;8.30;7.82;;;;;;;4.51;73.90;101507.13;5032654;28;20048;-64
2022/03/06 08:51:43;;;;;;;8.00;7.60;;;;;;;5.05;72.95;101502.19;5033997;28;20063;-64
2022/03/06 08:54:09;;;;;;;8.32;7.82;;;;;;;4.93;72.02;101514.50;5033882;28;20030;-65
2022/03/06 08:56:35;;;;;;;7.97;7.57;;;;;;;5.37;71.42;101509.47;5032891;28;20083;-63
2022/03/06 08:59:00;;;;;;;7.35;6.97;;;;;;;5.44;70.86;101506.25;5032468;28;20029;-64
2022/03/06 09:01:26;;;;;;;8.60;8.10;;;;;;;5.49;70.30;101511.97;5032591;28;20025;-64
2022/03/06 09:03:51;;;;;;;8.60;8.10;;;;;;;5.42;69.70;101499.41;5028368;28;20030;-64
2022/03/06 09:06:17;;;;;;;8.10;7.70;;;;;;;5.69;70.66;101502.56;5033593;28;20029;-64
2022/03/06 09:08:42;;;;;;;8.50;8.00;;;;;;;5.22;68.92;101504.41;5032184;28;20025;-64
2022/03/06 09:11:08;;;;;;;7.38;6.97;;;;;;;6.21;66.43;101506.38;5033835;28;20029;-64
2022/03/06 09:13:34;;;;;;;7.45;7.05;;;;;;;6.46;65.16;101496.50;5027791;28;20065;-65
2022/03/06 09:16:01;;;;;;;7.88;7.47;;;;;;;5.87;66.33;101500.28;5017098;28;20018;-64
2022/03/06 09:18:27;;;;;;;8.32;7.88;;;;;;;6.45;64.35;101492.19;5017401;28;20025;-64
2022/03/06 09:20:52;;;;;;;7.88;7.47;;;;;;;6.42;63.78;101500.34;5031286;28;20445;-63
2022/03/06 09:23:18;;;;;;;7.80;7.40;;;;;;;6.90;62.14;101498.13;5031736;28;20017;-64
2022/03/06 09:25:43;;;;;;;7.25;6.93;;;;;;;6.07;63.11;101496.09;5015213;28;20124;-64
2022/03/06 09:28:09;;;;;;;8.18;7.78;;;;;;;5.68;64.13;101490.34;5015735;28;20068;-64
2022/03/06 09:30:34;;;;;;;8.20;7.80;;;;;;;5.16;65.31;101489.09;5031899;28;20116;-64
2022/03/06 09:33:00;;;;;;;8.85;8.35;;;;;;;5.87;63.01;101492.38;5018504;28;20432;-64
2022/03/06 09:35:26;;;;;;;8.75;8.25;;;;;;;6.05;62.95;101492.75;5025986;28;20392;-65
2022/03/06 09:37:52;;;;;;;8.70;8.20;;;;;;;6.23;62.05;101491.28;5021788;28;20410;-65
2022/03/06 09:40:18;;;;;;;7.97;7.57;;;;;;;5.56;63.11;101488.66;5031804;28;20107;-65
2022/03/06 09:42:43;;;;;;;7.80;7.40;;;;;;;4.16;65.20;101477.19;5030779;28;20025;-65
2022/03/06 09:45:11;;;;;;;9.02;8.52;;;;;;;4.50;66.58;101492.31;5028523;28;20112;-67
2022/03/06 09:47:39;;;;;;;8.48;8.02;;;;;;;4.68;66.72;101477.81;5031773;28;20029;-68
2022/03/06 09:50:06;;;;;;;8.07;7.68;;;;;;;4.26;66.48;101487.03;5026508;28;20032;-67
2022/03/06 09:52:32;;;;;;;8.48;7.97;;;;;;;5.05;66.61;101481.16;5032805;28;20028;-68
2022/03/06 09:54:57;;;;;;;8.88;8.38;;;;;;;4.69;66.50;101479.47;5026554;28;20018;-68
2022/03/06 09:57:23;;;;;;;8.77;8.27;;;;;;;3.13;67.84;101479.19;5035692;28;20041;-66
2022/03/06 09:59:49;;;;;;;8.13;7.72;;;;;;;4.98;64.88;101475.53;5034370;28;20049;-68
2022/03/06 10:02:16;;;;;;;8.18;7.75;;;;;;;5.63;60.68;101467.97;5036311;28;20028;-66
2022/03/06 10:04:41;;;;;;;7.88;7.47;;;;;;;5.43;60.49;101465.06;5029941;28;20037;-68
2022/03/06 10:07:07;;;;;;;7.53;7.13;;;;;;;5.71;59.45;101458.50;5035854;28;20027;-67
2022/03/06 10:09:41;;;;;;;8.07;7.68;;;;;;;5.87;60.14;101460.78;5030417;28;20369;-67
2022/03/06 10:12:27;;;;;;;7.47;7.07;;;;;;;5.88;59.55;101456.38;5027858;28;20558;-67
2022/03/06 10:14:55;;;;;;;7.80;7.40;;;;;;;4.24;65.33;101447.75;5027165;28;20034;-66
2022/03/06 10:17:23;;;;;;;8.13;7.72;;;;;;;4.65;63.59;101447.34;5030592;28;20024;-67
2022/03/06 10:19:51;;;;;;;7.80;7.40;;;;;;;3.19;67.13;101456.03;5028497;28;20029;-70
2022/03/06 10:22:18;;;;;;;8.77;8.27;;;;;;;3.85;65.18;101454.91;5027792;28;20028;-67
2022/03/06 10:25:08;;;;;;;9.30;8.75;;;;;;;4.06;62.46;101449.09;5024924;28;20061;-67
2022/03/06 10:27:57;;;;;;;9.05;8.52;;;;;;;3.90;64.02;101451.97;5025630;28;20520;-69
2022/03/06 10:30:34;;;;;;;8.30;7.82;;;;;;;4.94;60.16;101431.19;5030156;28;20076;-67
2022/03/06 10:33:02;;;;;;;8.10;7.70;;;;;;;5.03;60.06;101432.28;5026595;28;20108;-70
2022/03/06 10:35:39;;;;;;;8.48;7.97;;;;;;;4.67;59.38;101434.91;5028875;28;20164;-67
2022/03/06 10:38:23;;;;;;;7.65;7.25;;;;;;;3.99;63.23;101438.19;5032313;28;20483;-65
2022/03/06 10:40:50;;;;;;;7.80;7.40;;;;;;;3.65;59.47;101429.22;5029098;28;20033;-68
2022/03/06 10:43:28;;;;;;;8.50;8.00;;;;;;;4.14;59.85;101434.44;5031374;28;20029;-67
2022/03/06 10:46:11;;;;;;;8.20;7.70;;;;;;;3.92;60.61;101425.59;5021228;28;20525;-69
2022/03/06 10:48:39;;;;;;;7.65;7.25;;;;;;;4.36;59.30;101417.97;5025489;28;20129;-68
2022/03/06 10:51:12;;;;;;;7.72;7.32;;;;;;;4.40;58.94;101411.53;5025868;28;20116;-67
2022/03/06 10:53:37;;;;;;;8.43;7.95;;;;;;;4.20;59.90;101413.97;5029992;28;21536;-68
2022/03/06 10:56:10;;;;;;;8.40;7.95;;;;;;;4.28;59.48;101409.81;5027596;28;20066;-67
2022/03/06 10:58:38;;;;;;;7.35;6.95;;;;;;;4.43;59.49;101400.81;5030649;28;20032;-68
2022/03/06 11:01:04;;;;;;;7.32;7.03;;;;;;;4.27;60.34;101399.44;5033200;28;20387;-66
2022/03/06 11:03:32;;;;;;;8.25;7.75;;;;;;;4.38;58.28;101417.84;5035950;28;20036;-68
2022/03/06 11:06:00;;;;;;;7.85;7.45;;;;;;;4.49;61.78;101407.41;5032862;28;20021;-69
2022/03/06 11:08:26;;;;;;;8.40;7.90;;;;;;;4.54;61.26;101401.78;5030798;28;20079;-67
2022/03/06 11:10:51;;;;;;;7.95;7.50;;;;;;;4.29;61.43;101406.22;5032950;28;20026;-69
2022/03/06 11:13:17;;;;;;;8.57;8.07;;;;;;;4.48;61.09;101395.22;5026636;28;20079;-65
2022/03/06 11:15:43;;;;;;;8.50;8.00;;;;;;;4.01;60.27;101403.94;5026906;28;20030;-68
2022/03/06 11:18:09;;;;;;;7.93;7.53;;;;;;;3.90;60.97;101399.47;5025935;28;20108;-67
2022/03/06 11:20:37;;;;;;;8.70;8.20;;;;;;;4.09;58.87;101401.59;5039799;28;20052;-68